sensor_id;sensor_type;location;lat;lon;timestamp;temperature;humidity
30678;DHT22;17437;47.188;8.896;2023-02-19T00:01:45;5.60;99.90
30678;DHT22;17437;47.188;8.896;2023-02-19T00:04:19;5.50;99.90
30678;DHT22;17437;47.188;8.896;2023-02-19T00:06:51;5.40;99.90
30678;DHT22;17437;47.188;8.896;2023-02-19T00:09:23;5.50;99.90
30678;DHT22;17437;47.188;8.896;2023-02-19T00:11:54;5.60;99.90
30678;DHT22;17437;47.188;8.896;2023-02-19T00:14:26;5.60;99.90
30678;DHT22;17437;47.188;8.896;2023-02-19T00:16:57;5.60;99.90
30678;DHT22;17437;47.188;8.896;2023-02-19T00:19:28;5.70;99.90
30678;DHT22;17437;47.188;8.896;2023-02-19T00:22:00;5.70;99.90
30678;DHT22;17437;47.188;8.896;2023-02-19T00:24:31;5.70;99.90
30678;DHT22;17437;47.188;8.896;2023-02-19T00:27:02;5.70;99.90
30678;DHT22;17437;47.188;8.896;2023-02-19T00:29:34;5.70;99.90
30678;DHT22;17437;47.188;8.896;2023-02-19T00:32:06;5.70;99.90
30678;DHT22;17437;47.188;8.896;2023-02-19T00:34:37;5.80;99.90
30678;DHT22;17437;47.188;8.896;2023-02-19T00:37:08;5.80;99.90
30678;DHT22;17437;47.188;8.896;2023-02-19T00:39:40;5.80;99.90
30678;DHT22;17437;47.188;8.896;2023-02-19T00:42:11;5.70;99.90
30678;DHT22;17437;47.188;8.896;2023-02-19T00:44:43;5.70;99.90
30678;DHT22;17437;47.188;8.896;2023-02-19T00:47:14;5.70;99.90
30678;DHT22;17437;47.188;8.896;2023-02-19T00:49:46;5.60;99.90
30678;DHT22;17437;47.188;8.896;2023-02-19T00:52:17;5.60;99.90
30678;DHT22;17437;47.188;8.896;2023-02-19T00:54:49;5.60;99.90
30678;DHT22;17437;47.188;8.896;2023-02-19T00:57:20;5.50;99.90
30678;DHT22;17437;47.188;8.896;2023-02-19T00:59:51;5.30;99.90
30678;DHT22;17437;47.188;8.896;2023-02-19T01:02:23;5.10;99.90
30678;DHT22;17437;47.188;8.896;2023-02-19T01:04:55;5.10;99.90
30678;DHT22;17437;47.188;8.896;2023-02-19T01:07:27;5.10;99.90
30678;DHT22;17437;47.188;8.896;2023-02-19T01:09:58;5.20;99.90
30678;DHT22;17437;47.188;8.896;2023-02-19T01:12:30;5.20;99.90
30678;DHT22;17437;47.188;8.896;2023-02-19T01:15:01;5.20;99.90
30678;DHT22;17437;47.188;8.896;2023-02-19T01:17:35;5.10;99.90
30678;DHT22;17437;47.188;8.896;2023-02-19T01:20:07;5.00;99.90
30678;DHT22;17437;47.188;8.896;2023-02-19T01:22:39;5.00;99.90
30678;DHT22;17437;47.188;8.896;2023-02-19T01:25:10;5.00;99.90
30678;DHT22;17437;47.188;8.896;2023-02-19T01:27:42;5.00;99.90
30678;DHT22;17437;47.188;8.896;2023-02-19T01:30:13;5.00;99.90
30678;DHT22;17437;47.188;8.896;2023-02-19T01:32:45;4.90;99.90
30678;DHT22;17437;47.188;8.896;2023-02-19T01:35:16;4.90;99.90
30678;DHT22;17437;47.188;8.896;2023-02-19T01:37:48;4.80;99.90
30678;DHT22;17437;47.188;8.896;2023-02-19T01:40:19;4.80;99.90
30678;DHT22;17437;47.188;8.896;2023-02-19T01:42:51;4.80;99.90
30678;DHT22;17437;47.188;8.896;2023-02-19T01:45:26;4.80;99.90
30678;DHT22;17437;47.188;8.896;2023-02-19T01:48:09;4.80;99.90
30678;DHT22;17437;47.188;8.896;2023-02-19T01:50:44;4.80;99.90
30678;DHT22;17437;47.188;8.896;2023-02-19T01:53:18;4.80;99.90
30678;DHT22;17437;47.188;8.896;2023-02-19T01:55:51;4.70;99.90
30678;DHT22;17437;47.188;8.896;2023-02-19T01:58:27;4.70;99.90
30678;DHT22;17437;47.188;8.896;2023-02-19T02:00:59;4.70;99.90
30678;DHT22;17437;47.188;8.896;2023-02-19T02:03:34;4.70;99.90
30678;DHT22;17437;47.188;8.896;2023-02-19T02:06:10;4.70;99.90
30678;DHT22;17437;47.188;8.896;2023-02-19T02:08:42;4.70;99.90
30678;DHT22;17437;47.188;8.896;2023-02-19T02:11:31;4.70;99.90
30678;DHT22;17437;47.188;8.896;2023-02-19T02:14:03;4.70;99.90
30678;DHT22;17437;47.188;8.896;2023-02-19T02:16:39;4.60;99.90
30678;DHT22;17437;47.188;8.896;2023-02-19T02:19:19;4.50;99.90
30678;DHT22;17437;47.188;8.896;2023-02-19T02:21:57;4.60;99.90
30678;DHT22;17437;47.188;8.896;2023-02-19T02:24:51;4.60;99.90
30678;DHT22;17437;47.188;8.896;2023-02-19T02:27:40;4.60;99.90
30678;DHT22;17437;47.188;8.896;2023-02-19T02:33:12;4.50;99.90
30678;DHT22;17437;47.188;8.896;2023-02-19T02:35:47;4.50;99.90
30678;DHT22;17437;47.188;8.896;2023-02-19T02:38:22;4.50;99.90
30678;DHT22;17437;47.188;8.896;2023-02-19T02:40:55;4.50;99.90
30678;DHT22;17437;47.188;8.896;2023-02-19T02:43:27;4.50;99.90
30678;DHT22;17437;47.188;8.896;2023-02-19T02:45:59;4.50;99.90
30678;DHT22;17437;47.188;8.896;2023-02-19T02:48:35;4.50;99.90
30678;DHT22;17437;47.188;8.896;2023-02-19T02:51:13;4.50;99.90
30678;DHT22;17437;47.188;8.896;2023-02-19T02:53:48;4.50;99.90
30678;DHT22;17437;47.188;8.896;2023-02-19T02:56:39;4.60;99.90
30678;DHT22;17437;47.188;8.896;2023-02-19T02:59:15;4.60;99.90
30678;DHT22;17437;47.188;8.896;2023-02-19T03:01:48;4.60;99.90
30678;DHT22;17437;47.188;8.896;2023-02-19T03:04:37;4.80;99.90
30678;DHT22;17437;47.188;8.896;2023-02-19T03:07:11;4.70;99.90
30678;DHT22;17437;47.188;8.896;2023-02-19T03:09:44;4.70;99.90
30678;DHT22;17437;47.188;8.896;2023-02-19T03:12:18;4.60;99.90
30678;DHT22;17437;47.188;8.896;2023-02-19T03:15:09;4.50;99.90
30678;DHT22;17437;47.188;8.896;2023-02-19T03:20:59;4.40;99.90
30678;DHT22;17437;47.188;8.896;2023-02-19T03:23:33;4.40;99.90
30678;DHT22;17437;47.188;8.896;2023-02-19T03:26:24;4.40;99.90
30678;DHT22;17437;47.188;8.896;2023-02-19T03:28:57;4.30;99.90
30678;DHT22;17437;47.188;8.896;2023-02-19T03:31:46;4.40;99.90
30678;DHT22;17437;47.188;8.896;2023-02-19T03:34:19;4.30;99.90
30678;DHT22;17437;47.188;8.896;2023-02-19T03:36:54;4.30;99.90
30678;DHT22;17437;47.188;8.896;2023-02-19T03:39:26;4.30;99.90
30678;DHT22;17437;47.188;8.896;2023-02-19T03:42:02;4.30;99.90
30678;DHT22;17437;47.188;8.896;2023-02-19T03:44:37;4.30;99.90
30678;DHT22;17437;47.188;8.896;2023-02-19T03:47:14;4.30;99.90
30678;DHT22;17437;47.188;8.896;2023-02-19T03:49:48;4.30;99.90
30678;DHT22;17437;47.188;8.896;2023-02-19T03:52:23;4.30;99.90
30678;DHT22;17437;47.188;8.896;2023-02-19T03:54:58;4.30;99.90
30678;DHT22;17437;47.188;8.896;2023-02-19T03:57:35;4.40;99.90
30678;DHT22;17437;47.188;8.896;2023-02-19T04:00:09;4.50;99.90
30678;DHT22;17437;47.188;8.896;2023-02-19T04:02:45;4.50;99.90
30678;DHT22;17437;47.188;8.896;2023-02-19T04:05:18;4.50;99.90
30678;DHT22;17437;47.188;8.896;2023-02-19T04:07:53;4.50;99.90
30678;DHT22;17437;47.188;8.896;2023-02-19T04:10:26;4.40;99.90
30678;DHT22;17437;47.188;8.896;2023-02-19T04:13:00;4.40;99.90
30678;DHT22;17437;47.188;8.896;2023-02-19T04:15:34;4.50;99.90
30678;DHT22;17437;47.188;8.896;2023-02-19T04:18:09;4.60;99.90
30678;DHT22;17437;47.188;8.896;2023-02-19T04:20:43;4.60;99.90
30678;DHT22;17437;47.188;8.896;2023-02-19T04:23:18;4.70;99.90
30678;DHT22;17437;47.188;8.896;2023-02-19T04:25:52;4.80;99.90
30678;DHT22;17437;47.188;8.896;2023-02-19T04:28:24;4.80;99.90
30678;DHT22;17437;47.188;8.896;2023-02-19T04:30:55;5.00;99.90
30678;DHT22;17437;47.188;8.896;2023-02-19T04:33:27;5.10;99.90
30678;DHT22;17437;47.188;8.896;2023-02-19T04:35:58;5.10;99.90
30678;DHT22;17437;47.188;8.896;2023-02-19T04:38:30;5.20;99.90
30678;DHT22;17437;47.188;8.896;2023-02-19T04:41:01;5.30;99.90
30678;DHT22;17437;47.188;8.896;2023-02-19T04:43:33;5.30;99.90
30678;DHT22;17437;47.188;8.896;2023-02-19T04:46:05;5.30;99.90
30678;DHT22;17437;47.188;8.896;2023-02-19T04:48:36;5.40;99.90
30678;DHT22;17437;47.188;8.896;2023-02-19T04:51:09;5.30;99.90
30678;DHT22;17437;47.188;8.896;2023-02-19T04:53:41;5.40;99.90
30678;DHT22;17437;47.188;8.896;2023-02-19T04:56:15;5.30;99.90
30678;DHT22;17437;47.188;8.896;2023-02-19T04:58:46;5.40;99.90
30678;DHT22;17437;47.188;8.896;2023-02-19T05:01:18;5.40;99.90
30678;DHT22;17437;47.188;8.896;2023-02-19T05:03:49;5.50;99.90
30678;DHT22;17437;47.188;8.896;2023-02-19T05:06:21;5.60;99.90
30678;DHT22;17437;47.188;8.896;2023-02-19T05:08:52;5.60;99.90
30678;DHT22;17437;47.188;8.896;2023-02-19T05:11:24;5.70;99.90
30678;DHT22;17437;47.188;8.896;2023-02-19T05:13:55;5.70;99.90
30678;DHT22;17437;47.188;8.896;2023-02-19T05:16:27;5.70;99.90
30678;DHT22;17437;47.188;8.896;2023-02-19T05:18:58;5.80;99.90
30678;DHT22;17437;47.188;8.896;2023-02-19T05:21:30;5.80;99.90
30678;DHT22;17437;47.188;8.896;2023-02-19T05:24:01;5.80;99.90
30678;DHT22;17437;47.188;8.896;2023-02-19T05:26:33;5.80;99.90
30678;DHT22;17437;47.188;8.896;2023-02-19T05:29:05;5.80;99.90
30678;DHT22;17437;47.188;8.896;2023-02-19T05:31:36;5.80;99.90
30678;DHT22;17437;47.188;8.896;2023-02-19T05:34:08;5.80;99.90
30678;DHT22;17437;47.188;8.896;2023-02-19T05:36:39;5.80;99.90
30678;DHT22;17437;47.188;8.896;2023-02-19T05:39:12;5.80;99.90
30678;DHT22;17437;47.188;8.896;2023-02-19T05:41:43;5.80;99.90
30678;DHT22;17437;47.188;8.896;2023-02-19T05:44:15;5.80;99.90
30678;DHT22;17437;47.188;8.896;2023-02-19T05:46:46;5.70;99.90
30678;DHT22;17437;47.188;8.896;2023-02-19T05:49:18;5.70;99.90
30678;DHT22;17437;47.188;8.896;2023-02-19T05:51:50;5.70;99.90
30678;DHT22;17437;47.188;8.896;2023-02-19T05:54:22;5.70;99.90
30678;DHT22;17437;47.188;8.896;2023-02-19T05:56:53;5.70;99.90
30678;DHT22;17437;47.188;8.896;2023-02-19T05:59:26;5.70;99.90
30678;DHT22;17437;47.188;8.896;2023-02-19T06:01:57;5.70;99.90
30678;DHT22;17437;47.188;8.896;2023-02-19T06:04:29;5.70;99.90
30678;DHT22;17437;47.188;8.896;2023-02-19T06:07:00;5.80;99.90
30678;DHT22;17437;47.188;8.896;2023-02-19T06:09:32;5.80;99.90
30678;DHT22;17437;47.188;8.896;2023-02-19T06:12:04;5.90;99.90
30678;DHT22;17437;47.188;8.896;2023-02-19T06:14:37;5.90;99.90
30678;DHT22;17437;47.188;8.896;2023-02-19T06:17:08;5.90;99.90
30678;DHT22;17437;47.188;8.896;2023-02-19T06:19:40;5.90;99.90
30678;DHT22;17437;47.188;8.896;2023-02-19T06:22:12;5.90;99.90
30678;DHT22;17437;47.188;8.896;2023-02-19T06:24:44;5.90;99.90
30678;DHT22;17437;47.188;8.896;2023-02-19T06:27:17;6.00;99.90
30678;DHT22;17437;47.188;8.896;2023-02-19T06:29:49;6.00;99.90
30678;DHT22;17437;47.188;8.896;2023-02-19T06:32:20;6.00;99.90
30678;DHT22;17437;47.188;8.896;2023-02-19T06:34:52;6.00;99.90
30678;DHT22;17437;47.188;8.896;2023-02-19T06:37:23;6.10;99.90
30678;DHT22;17437;47.188;8.896;2023-02-19T06:39:55;6.20;99.90
30678;DHT22;17437;47.188;8.896;2023-02-19T06:42:27;6.20;99.90
30678;DHT22;17437;47.188;8.896;2023-02-19T06:44:59;6.30;99.90
30678;DHT22;17437;47.188;8.896;2023-02-19T06:47:32;6.40;99.90
30678;DHT22;17437;47.188;8.896;2023-02-19T06:50:04;6.40;99.90
30678;DHT22;17437;47.188;8.896;2023-02-19T06:52:36;6.50;99.90
30678;DHT22;17437;47.188;8.896;2023-02-19T06:55:08;6.50;99.90
30678;DHT22;17437;47.188;8.896;2023-02-19T06:57:40;6.50;99.90
30678;DHT22;17437;47.188;8.896;2023-02-19T07:00:12;6.50;99.90
30678;DHT22;17437;47.188;8.896;2023-02-19T07:02:44;6.60;99.90
30678;DHT22;17437;47.188;8.896;2023-02-19T07:05:15;6.60;99.90
30678;DHT22;17437;47.188;8.896;2023-02-19T07:07:47;6.70;99.90
30678;DHT22;17437;47.188;8.896;2023-02-19T07:10:18;6.90;99.90
30678;DHT22;17437;47.188;8.896;2023-02-19T07:12:50;7.00;99.90
30678;DHT22;17437;47.188;8.896;2023-02-19T07:15:21;7.10;99.90
30678;DHT22;17437;47.188;8.896;2023-02-19T07:17:53;7.20;99.90
30678;DHT22;17437;47.188;8.896;2023-02-19T07:20:24;7.30;99.90
30678;DHT22;17437;47.188;8.896;2023-02-19T07:22:57;7.50;99.90
30678;DHT22;17437;47.188;8.896;2023-02-19T07:25:30;7.40;99.90
30678;DHT22;17437;47.188;8.896;2023-02-19T07:28:05;7.40;99.90
30678;DHT22;17437;47.188;8.896;2023-02-19T07:30:38;7.60;99.90
30678;DHT22;17437;47.188;8.896;2023-02-19T07:33:11;7.50;99.90
30678;DHT22;17437;47.188;8.896;2023-02-19T07:35:45;7.50;99.90
30678;DHT22;17437;47.188;8.896;2023-02-19T07:38:18;7.50;99.90
30678;DHT22;17437;47.188;8.896;2023-02-19T07:40:54;7.60;99.90
30678;DHT22;17437;47.188;8.896;2023-02-19T07:43:28;7.70;99.90
30678;DHT22;17437;47.188;8.896;2023-02-19T07:46:02;7.80;99.90
30678;DHT22;17437;47.188;8.896;2023-02-19T07:48:35;7.90;99.90
30678;DHT22;17437;47.188;8.896;2023-02-19T07:51:11;7.90;99.90
30678;DHT22;17437;47.188;8.896;2023-02-19T07:53:42;7.90;99.90
30678;DHT22;17437;47.188;8.896;2023-02-19T07:56:14;7.90;99.90
30678;DHT22;17437;47.188;8.896;2023-02-19T07:58:45;7.90;99.90
30678;DHT22;17437;47.188;8.896;2023-02-19T08:01:18;7.90;99.90
30678;DHT22;17437;47.188;8.896;2023-02-19T08:03:53;7.90;99.90
30678;DHT22;17437;47.188;8.896;2023-02-19T08:06:25;7.90;99.90
30678;DHT22;17437;47.188;8.896;2023-02-19T08:08:56;7.90;99.90
30678;DHT22;17437;47.188;8.896;2023-02-19T08:11:29;8.10;99.90
30678;DHT22;17437;47.188;8.896;2023-02-19T08:14:18;8.30;99.90
30678;DHT22;17437;47.188;8.896;2023-02-19T08:16:51;8.60;99.90
30678;DHT22;17437;47.188;8.896;2023-02-19T08:19:23;8.90;99.90
30678;DHT22;17437;47.188;8.896;2023-02-19T08:21:54;9.00;99.90
30678;DHT22;17437;47.188;8.896;2023-02-19T08:24:26;9.10;99.90
30678;DHT22;17437;47.188;8.896;2023-02-19T08:26:57;9.20;99.90
30678;DHT22;17437;47.188;8.896;2023-02-19T08:29:29;9.40;99.90
30678;DHT22;17437;47.188;8.896;2023-02-19T08:32:00;9.50;99.90
30678;DHT22;17437;47.188;8.896;2023-02-19T08:34:32;9.60;99.90
30678;DHT22;17437;47.188;8.896;2023-02-19T08:37:03;9.80;99.90
30678;DHT22;17437;47.188;8.896;2023-02-19T08:39:35;9.90;99.90
30678;DHT22;17437;47.188;8.896;2023-02-19T08:42:06;10.00;99.90
30678;DHT22;17437;47.188;8.896;2023-02-19T08:44:38;10.10;99.90
30678;DHT22;17437;47.188;8.896;2023-02-19T08:47:12;10.10;99.90
30678;DHT22;17437;47.188;8.896;2023-02-19T08:49:44;10.20;99.90
30678;DHT22;17437;47.188;8.896;2023-02-19T08:52:16;10.30;99.90
30678;DHT22;17437;47.188;8.896;2023-02-19T08:54:47;10.30;99.90
30678;DHT22;17437;47.188;8.896;2023-02-19T08:57:19;10.30;99.90
30678;DHT22;17437;47.188;8.896;2023-02-19T08:59:51;10.20;99.90
30678;DHT22;17437;47.188;8.896;2023-02-19T09:02:23;10.20;99.90
30678;DHT22;17437;47.188;8.896;2023-02-19T09:04:54;10.20;99.90
30678;DHT22;17437;47.188;8.896;2023-02-19T09:07:26;10.20;99.90
30678;DHT22;17437;47.188;8.896;2023-02-19T09:09:59;10.10;99.90
30678;DHT22;17437;47.188;8.896;2023-02-19T09:12:30;10.00;99.90
30678;DHT22;17437;47.188;8.896;2023-02-19T09:15:04;10.00;99.90
30678;DHT22;17437;47.188;8.896;2023-02-19T09:17:35;10.00;99.90
30678;DHT22;17437;47.188;8.896;2023-02-19T09:20:08;10.00;99.90
30678;DHT22;17437;47.188;8.896;2023-02-19T09:22:40;10.00;99.90
30678;DHT22;17437;47.188;8.896;2023-02-19T09:25:12;10.10;99.90
30678;DHT22;17437;47.188;8.896;2023-02-19T09:27:43;10.10;99.90
30678;DHT22;17437;47.188;8.896;2023-02-19T09:30:15;10.10;99.90
30678;DHT22;17437;47.188;8.896;2023-02-19T09:32:47;10.10;99.90
30678;DHT22;17437;47.188;8.896;2023-02-19T09:35:18;10.00;99.90
30678;DHT22;17437;47.188;8.896;2023-02-19T09:37:50;10.00;99.90
30678;DHT22;17437;47.188;8.896;2023-02-19T09:40:22;9.90;99.90
30678;DHT22;17437;47.188;8.896;2023-02-19T09:42:53;9.90;99.90
30678;DHT22;17437;47.188;8.896;2023-02-19T09:45:26;9.90;99.90
30678;DHT22;17437;47.188;8.896;2023-02-19T09:47:58;9.90;99.90
30678;DHT22;17437;47.188;8.896;2023-02-19T09:50:31;9.90;99.90
30678;DHT22;17437;47.188;8.896;2023-02-19T09:53:09;9.80;99.90
30678;DHT22;17437;47.188;8.896;2023-02-19T09:55:40;9.80;99.90
30678;DHT22;17437;47.188;8.896;2023-02-19T09:58:23;9.80;99.90
30678;DHT22;17437;47.188;8.896;2023-02-19T10:00:57;9.80;99.90
30678;DHT22;17437;47.188;8.896;2023-02-19T10:03:31;9.80;99.90
30678;DHT22;17437;47.188;8.896;2023-02-19T10:06:07;9.80;99.90
30678;DHT22;17437;47.188;8.896;2023-02-19T10:08:42;9.90;99.90
30678;DHT22;17437;47.188;8.896;2023-02-19T10:11:14;9.80;99.90
30678;DHT22;17437;47.188;8.896;2023-02-19T10:13:48;9.90;99.90
30678;DHT22;17437;47.188;8.896;2023-02-19T10:16:23;9.90;99.90
30678;DHT22;17437;47.188;8.896;2023-02-19T10:18:55;10.00;99.90
30678;DHT22;17437;47.188;8.896;2023-02-19T10:21:27;10.00;99.90
30678;DHT22;17437;47.188;8.896;2023-02-19T10:24:00;10.00;99.90
30678;DHT22;17437;47.188;8.896;2023-02-19T10:26:33;9.90;99.90
30678;DHT22;17437;47.188;8.896;2023-02-19T10:29:06;9.80;99.90
30678;DHT22;17437;47.188;8.896;2023-02-19T10:31:37;9.80;99.90
30678;DHT22;17437;47.188;8.896;2023-02-19T10:34:16;9.80;99.90
30678;DHT22;17437;47.188;8.896;2023-02-19T10:36:51;9.80;99.90
30678;DHT22;17437;47.188;8.896;2023-02-19T10:39:35;9.90;99.90
30678;DHT22;17437;47.188;8.896;2023-02-19T10:42:18;9.90;99.90
30678;DHT22;17437;47.188;8.896;2023-02-19T10:44:52;9.90;99.90
30678;DHT22;17437;47.188;8.896;2023-02-19T10:47:27;9.80;99.90
30678;DHT22;17437;47.188;8.896;2023-02-19T10:50:00;9.80;99.90
30678;DHT22;17437;47.188;8.896;2023-02-19T10:52:35;9.80;99.90
30678;DHT22;17437;47.188;8.896;2023-02-19T10:55:23;9.80;99.90
30678;DHT22;17437;47.188;8.896;2023-02-19T10:57:52;9.80;99.90
30678;DHT22;17437;47.188;8.896;2023-02-19T11:00:26;9.80;99.90
30678;DHT22;17437;47.188;8.896;2023-02-19T11:03:20;9.90;99.90
30678;DHT22;17437;47.188;8.896;2023-02-19T11:06:00;10.00;99.90
30678;DHT22;17437;47.188;8.896;2023-02-19T11:08:27;10.00;99.90
30678;DHT22;17437;47.188;8.896;2023-02-19T11:10:58;10.10;99.90
30678;DHT22;17437;47.188;8.896;2023-02-19T11:13:32;10.20;99.90
30678;DHT22;17437;47.188;8.896;2023-02-19T11:16:06;10.20;99.90
30678;DHT22;17437;47.188;8.896;2023-02-19T11:18:37;10.30;99.90
30678;DHT22;17437;47.188;8.896;2023-02-19T11:21:23;10.40;99.90
30678;DHT22;17437;47.188;8.896;2023-02-19T11:23:59;10.50;99.90
30678;DHT22;17437;47.188;8.896;2023-02-19T11:26:33;10.70;99.90
30678;DHT22;17437;47.188;8.896;2023-02-19T11:29:16;10.70;99.90
30678;DHT22;17437;47.188;8.896;2023-02-19T11:31:49;10.70;99.90
30678;DHT22;17437;47.188;8.896;2023-02-19T11:34:27;10.70;99.90
30678;DHT22;17437;47.188;8.896;2023-02-19T11:37:10;10.80;99.90
30678;DHT22;17437;47.188;8.896;2023-02-19T11:39:45;10.80;99.90
30678;DHT22;17437;47.188;8.896;2023-02-19T11:42:28;10.80;99.90
30678;DHT22;17437;47.188;8.896;2023-02-19T11:45:10;10.80;99.90
30678;DHT22;17437;47.188;8.896;2023-02-19T11:48:14;10.90;99.90
30678;DHT22;17437;47.188;8.896;2023-02-19T11:50:53;10.90;99.90
30678;DHT22;17437;47.188;8.896;2023-02-19T11:53:26;11.00;99.90
30678;DHT22;17437;47.188;8.896;2023-02-19T11:56:09;11.10;99.90
30678;DHT22;17437;47.188;8.896;2023-02-19T12:01:49;11.40;99.90
30678;DHT22;17437;47.188;8.896;2023-02-19T12:04:50;11.60;99.90
30678;DHT22;17437;47.188;8.896;2023-02-19T12:07:38;11.60;99.90
30678;DHT22;17437;47.188;8.896;2023-02-19T12:10:11;11.70;99.90
30678;DHT22;17437;47.188;8.896;2023-02-19T12:12:53;11.80;99.90
30678;DHT22;17437;47.188;8.896;2023-02-19T12:18:43;12.20;99.90
30678;DHT22;17437;47.188;8.896;2023-02-19T12:21:23;12.40;99.90
30678;DHT22;17437;47.188;8.896;2023-02-19T12:27:06;12.60;99.90
30678;DHT22;17437;47.188;8.896;2023-02-19T12:29:46;12.50;99.90
30678;DHT22;17437;47.188;8.896;2023-02-19T12:32:26;12.50;99.90
30678;DHT22;17437;47.188;8.896;2023-02-19T12:35:35;12.40;99.90
30678;DHT22;17437;47.188;8.896;2023-02-19T12:38:17;12.30;99.90
30678;DHT22;17437;47.188;8.896;2023-02-19T12:40:57;12.10;99.90
30678;DHT22;17437;47.188;8.896;2023-02-19T12:43:30;12.00;99.90
30678;DHT22;17437;47.188;8.896;2023-02-19T12:46:04;12.00;99.90
30678;DHT22;17437;47.188;8.896;2023-02-19T12:48:41;11.90;99.90
30678;DHT22;17437;47.188;8.896;2023-02-19T12:51:14;11.80;99.90
30678;DHT22;17437;47.188;8.896;2023-02-19T12:53:49;11.70;99.90
30678;DHT22;17437;47.188;8.896;2023-02-19T12:56:24;11.70;99.90
30678;DHT22;17437;47.188;8.896;2023-02-19T12:58:58;11.60;99.90
30678;DHT22;17437;47.188;8.896;2023-02-19T13:01:34;11.60;99.90
30678;DHT22;17437;47.188;8.896;2023-02-19T13:04:23;11.50;99.90
30678;DHT22;17437;47.188;8.896;2023-02-19T13:07:00;11.40;99.90
30678;DHT22;17437;47.188;8.896;2023-02-19T13:09:34;11.30;99.90
30678;DHT22;17437;47.188;8.896;2023-02-19T13:12:10;11.20;99.90
30678;DHT22;17437;47.188;8.896;2023-02-19T13:14:45;11.20;99.90
30678;DHT22;17437;47.188;8.896;2023-02-19T13:17:21;11.20;99.90
30678;DHT22;17437;47.188;8.896;2023-02-19T13:19:57;11.20;99.90
30678;DHT22;17437;47.188;8.896;2023-02-19T13:22:34;11.20;99.90
30678;DHT22;17437;47.188;8.896;2023-02-19T13:25:26;11.10;99.90
30678;DHT22;17437;47.188;8.896;2023-02-19T13:28:15;11.00;99.90
30678;DHT22;17437;47.188;8.896;2023-02-19T13:31:03;10.90;99.90
30678;DHT22;17437;47.188;8.896;2023-02-19T13:33:41;10.80;99.90
30678;DHT22;17437;47.188;8.896;2023-02-19T13:36:15;10.70;99.90
30678;DHT22;17437;47.188;8.896;2023-02-19T13:38:49;10.60;99.90
30678;DHT22;17437;47.188;8.896;2023-02-19T13:41:26;10.50;99.90
30678;DHT22;17437;47.188;8.896;2023-02-19T13:44:01;10.50;99.90
30678;DHT22;17437;47.188;8.896;2023-02-19T13:46:37;10.50;99.90
30678;DHT22;17437;47.188;8.896;2023-02-19T13:49:48;10.50;99.90
30678;DHT22;17437;47.188;8.896;2023-02-19T13:52:42;10.50;99.90
30678;DHT22;17437;47.188;8.896;2023-02-19T13:55:48;10.50;99.90
30678;DHT22;17437;47.188;8.896;2023-02-19T13:58:53;10.50;99.90
30678;DHT22;17437;47.188;8.896;2023-02-19T14:04:50;10.40;99.90
30678;DHT22;17437;47.188;8.896;2023-02-19T14:17:03;10.30;99.90
30678;DHT22;17437;47.188;8.896;2023-02-19T14:19:47;10.30;99.90
30678;DHT22;17437;47.188;8.896;2023-02-19T14:25:08;10.30;99.90
30678;DHT22;17437;47.188;8.896;2023-02-19T14:27:42;10.40;99.90
30678;DHT22;17437;47.188;8.896;2023-02-19T14:30:16;10.30;99.90
30678;DHT22;17437;47.188;8.896;2023-02-19T14:32:48;10.30;99.90
30678;DHT22;17437;47.188;8.896;2023-02-19T14:35:24;10.30;99.90
30678;DHT22;17437;47.188;8.896;2023-02-19T14:37:59;10.30;99.90
30678;DHT22;17437;47.188;8.896;2023-02-19T14:40:37;10.30;99.90
30678;DHT22;17437;47.188;8.896;2023-02-19T14:46:25;10.40;99.90
30678;DHT22;17437;47.188;8.896;2023-02-19T14:49:11;10.30;99.90
30678;DHT22;17437;47.188;8.896;2023-02-19T14:51:48;10.30;99.90
30678;DHT22;17437;47.188;8.896;2023-02-19T14:54:26;10.30;99.90
30678;DHT22;17437;47.188;8.896;2023-02-19T14:56:59;10.20;99.90
30678;DHT22;17437;47.188;8.896;2023-02-19T14:59:31;10.20;99.90
30678;DHT22;17437;47.188;8.896;2023-02-19T15:02:13;10.20;99.90
30678;DHT22;17437;47.188;8.896;2023-02-19T15:04:42;10.20;99.90
30678;DHT22;17437;47.188;8.896;2023-02-19T15:07:16;10.10;99.90
30678;DHT22;17437;47.188;8.896;2023-02-19T15:09:50;10.00;99.90
30678;DHT22;17437;47.188;8.896;2023-02-19T15:12:24;10.00;99.90
30678;DHT22;17437;47.188;8.896;2023-02-19T15:14:58;10.00;99.90
30678;DHT22;17437;47.188;8.896;2023-02-19T15:17:33;10.00;99.90
30678;DHT22;17437;47.188;8.896;2023-02-19T15:20:09;9.90;99.90
30678;DHT22;17437;47.188;8.896;2023-02-19T15:22:41;9.90;99.90
30678;DHT22;17437;47.188;8.896;2023-02-19T15:25:17;9.90;99.90
30678;DHT22;17437;47.188;8.896;2023-02-19T15:27:49;9.90;99.90
30678;DHT22;17437;47.188;8.896;2023-02-19T15:30:23;9.90;99.90
30678;DHT22;17437;47.188;8.896;2023-02-19T15:32:56;9.90;99.90
30678;DHT22;17437;47.188;8.896;2023-02-19T15:35:29;9.90;99.90
30678;DHT22;17437;47.188;8.896;2023-02-19T15:38:02;9.90;99.90
30678;DHT22;17437;47.188;8.896;2023-02-19T15:40:34;9.90;99.90
30678;DHT22;17437;47.188;8.896;2023-02-19T15:43:09;9.90;99.90
30678;DHT22;17437;47.188;8.896;2023-02-19T15:45:41;9.90;99.90
30678;DHT22;17437;47.188;8.896;2023-02-19T15:48:16;9.90;99.90
30678;DHT22;17437;47.188;8.896;2023-02-19T15:50:50;9.80;99.90
30678;DHT22;17437;47.188;8.896;2023-02-19T15:53:24;9.80;99.90
30678;DHT22;17437;47.188;8.896;2023-02-19T15:56:04;9.80;99.90
30678;DHT22;17437;47.188;8.896;2023-02-19T15:58:35;9.80;99.90
30678;DHT22;17437;47.188;8.896;2023-02-19T16:01:13;9.80;99.90
30678;DHT22;17437;47.188;8.896;2023-02-19T16:03:47;9.70;99.90
30678;DHT22;17437;47.188;8.896;2023-02-19T16:06:19;9.70;99.90
30678;DHT22;17437;47.188;8.896;2023-02-19T16:09:02;9.70;99.90
30678;DHT22;17437;47.188;8.896;2023-02-19T16:11:37;9.70;99.90
30678;DHT22;17437;47.188;8.896;2023-02-19T16:14:23;9.60;99.90
30678;DHT22;17437;47.188;8.896;2023-02-19T16:16:58;9.60;99.90
30678;DHT22;17437;47.188;8.896;2023-02-19T16:19:43;9.60;99.90
30678;DHT22;17437;47.188;8.896;2023-02-19T16:22:05;9.60;99.90
30678;DHT22;17437;47.188;8.896;2023-02-19T16:24:41;9.60;99.90
30678;DHT22;17437;47.188;8.896;2023-02-19T16:27:28;9.50;99.90
30678;DHT22;17437;47.188;8.896;2023-02-19T16:30:01;9.50;99.90
30678;DHT22;17437;47.188;8.896;2023-02-19T16:32:35;9.50;99.90
30678;DHT22;17437;47.188;8.896;2023-02-19T16:35:34;9.50;99.90
30678;DHT22;17437;47.188;8.896;2023-02-19T16:38:10;9.50;99.90
30678;DHT22;17437;47.188;8.896;2023-02-19T16:43:44;9.40;99.90
30678;DHT22;17437;47.188;8.896;2023-02-19T16:46:17;9.40;99.90
30678;DHT22;17437;47.188;8.896;2023-02-19T16:48:49;9.40;99.90
30678;DHT22;17437;47.188;8.896;2023-02-19T16:51:24;9.40;99.90
30678;DHT22;17437;47.188;8.896;2023-02-19T16:53:56;9.40;99.90
30678;DHT22;17437;47.188;8.896;2023-02-19T16:56:28;9.30;99.90
30678;DHT22;17437;47.188;8.896;2023-02-19T16:59:00;9.30;99.90
30678;DHT22;17437;47.188;8.896;2023-02-19T17:01:31;9.30;99.90
30678;DHT22;17437;47.188;8.896;2023-02-19T17:04:05;9.30;99.90
30678;DHT22;17437;47.188;8.896;2023-02-19T17:06:39;9.30;99.90
30678;DHT22;17437;47.188;8.896;2023-02-19T17:09:10;9.20;99.90